Terminal Aerodrome Forecast
Issued by NWS

Home | Current Version | Previous Version | Text Only | Print | Product List | Glossary On
Versions: 1 2 3 4 5 6 7 8 9 10 11 12 13 14 15 16 17 18 19 20 21 22 23
000
FTUS41 KOKX 301400 AAA
TAFSWF
TAF AMD
KSWF 301436Z 3015/3118 28010KT 4SM -SN OVC050
     FM301600 31016G26KT P6SM SCT025 BKN050
     FM302100 31022G35KT P6SM SCT025 SCT150
     FM310500 31026G40KT P6SM SCT250
     FM311500 32023G35KT P6SM SCT250
      AMD NOT SKED=

USA.gov is the U.S. government's official web portal to all federal, state and local government web resources and services.